LaPorte

MUNICIPAL AIRPORT

CURRENT FUEL PRICES

100LL  $4.86
JET  $4.10
AUTOGAS  $3.99

AWOS Updated every 20 minutes

KPPO 270115Z AUTO 23010G17KT 10SM CLR 22/16 A2986

Get in Touch

2341 State Road 39 South
LaPorte, IN 46350
219 324 3393 (office)
219 325 8829 (fax)
lpairport@nullcsinet.net

Hours

0700 - 1800 Daily
Closed Thanksgiving,
Christmas and
New Years Day

Directions

find-us-on-facebook-logo-vector

Join us for summer camp!

Last year’s camp for 6th – 8th graders was a huge success, and requests from parents and students convinced us to expand camp to include students entering grades 4th – 12th. All students will receive a flight from a local pilot. The Kalamazoo Air Zoo will be back with classes for 4th – 8th graders titled Flight Science and Rocket Science. The high school group will be spending time in ground school with a flight instructor, as well as receive a demonstration on sky-diving and parachute-packing from Plymouth Sky Sports. On Friday, June 19, all students will board a charter bus and head to the Kalamazoo Air Zoo for a tour of the Restoration Center, and more classes utilizing their wind tunnel and flight simulators.
Download a detailed itinerary and registration form.  
Registration Form

oshkoshFUEL DISCOUNT

Oshkosh Fuel Discount

Laporte Municipal Airport

Laporte Municipal Airport